航空気象通報

ウインドサーファーのための航空気象通報による風予報です。

10/17-10/19の航空気象通報

2016年10月17日 23時12分21秒 | TAF

羽田空港
TAF RJTT 171105Z 1712/1818 01010KT 9999 FEW010 BKN020
TEMPO 1715/1722 4000 SHRA BR FEW005 BKN008
日本時間17日21時-19日03時:010度から10ノットの風

但し、18日00-07時の間:ときどき

静岡空港
TAF RJNS 171107Z 1712/1818 33005KT 9999 FEW008 BKN015
BECMG 1800/1803 12006KT
BECMG 1812/1815 35004KT
日本時間17日21時-18日09時:330度から5ノットの風
09-12時:風が変化
12-21時:120度から6ノットの風
21時-19日03時:350度から4ノットの風

福岡空港
TAF RJFF 171108Z 1712/1818 15003KT 9999 FEW010 SCT020
BECMG 1800/1803 34011KT
BECMG 1815/1818 12003KT
日本時間17日21時-18日09時:150度から3ノットの風
09-12時:風が変化
12-24時:340度から11ノットの風
19日00-03時:風が変化
03時:120度から3ノットの風

那覇空港
TAF ROAH 171105Z 1712/1818 05007KT 9999 FEW015 SCT025
日本時間17日21時-19日03時:050度から7ノットの風

石垣空港
TAF ROIG 171107Z 1712/1818 06011KT 9999 FEW010 SCT020
日本時間17日21時-19日03時:060度から11ノットの風

マウイのカフルイ空港
PHOG 171131Z 1712/1812 04011KT P6SM FEW030 SCT050
FM172000 05014G22KT P6SM FEW030 SCT050
FM180600 04011KT P6SM SCT030 SCT050 AMD LTD TO VIS AND WIND TIL 171600
ハワイ時間17日02-10時:040度から11ノットの風
10-20時:050度から14ノット、突風22ノット
20時-18日02時:040度から11ノットの風

サイパン空港
TAF PGSN 171122Z 1712/1812 08008KT P6SM VCSH FEW020 SCT050
マリアナ時間17日22時-18日22時:080度から8ノットの風

ジャンル:
お天気
コメント   この記事についてブログを書く
この記事をはてなブックマークに追加
« 10/16-10/18の航空気象通報 | トップ | 10/18-10/20の航空気象通報 »
最近の画像もっと見る

コメントを投稿

ブログ作成者から承認されるまでコメントは反映されません。

コメント利用規約に同意の上コメント投稿を行ってください。

数字4桁を入力し、投稿ボタンを押してください。

あわせて読む

トラックバック

この記事のトラックバック  Ping-URL
ブログ作成者から承認されるまでトラックバックは反映されません。
  • 30日以上前の記事に対するトラックバックは受け取らないよう設定されております。
  • 送信元の記事内容が半角英数のみのトラックバックは受け取らないよう設定されております。
  • このブログへのリンクがない記事からのトラックバックは受け取らないよう設定されております。
  • ※ブログ管理者のみ、編集画面で設定の変更が可能です。